createdAt,value
2022-12-08T00:00:00.828Z,2.00
2022-12-08T00:01:04.817Z,1.00
2022-12-08T00:02:09.140Z,0.50
2022-12-08T00:03:14.137Z,2.00
2022-12-08T00:04:18.154Z,2.50
2022-12-08T00:05:22.154Z,2.50
2022-12-08T00:06:26.274Z,2.50
2022-12-08T00:07:30.266Z,2.00
2022-12-08T00:08:34.581Z,2.25
2022-12-08T00:09:39.620Z,3.00
2022-12-08T00:10:50.541Z,2.00
2022-12-08T00:11:48.825Z,2.25
2022-12-08T00:12:52.840Z,1.50
2022-12-08T00:13:56.721Z,2.75
2022-12-08T00:15:01.177Z,3.50
2022-12-08T00:16:05.386Z,4.00
2022-12-08T00:17:09.546Z,2.00
2022-12-08T00:18:13.544Z,1.00
2022-12-08T00:19:17.547Z,2.75
2022-12-08T00:20:21.347Z,2.25
2022-12-08T00:21:25.351Z,1.50
2022-12-08T00:22:29.390Z,1.50
2022-12-08T00:23:33.369Z,2.50
2022-12-08T00:24:37.346Z,2.00
2022-12-08T00:25:41.461Z,2.00
2022-12-08T00:26:45.573Z,1.75
2022-12-08T00:27:49.768Z,2.00
2022-12-08T00:28:53.861Z,3.00
2022-12-08T00:29:57.792Z,2.50
2022-12-08T00:31:01.456Z,2.25
2022-12-08T00:32:05.751Z,2.25
2022-12-08T00:33:09.778Z,3.50
2022-12-08T00:34:14.082Z,2.50
2022-12-08T00:35:18.083Z,1.50
2022-12-08T00:36:22.078Z,3.00
2022-12-08T00:37:26.693Z,2.25
2022-12-08T00:38:31.112Z,2.00
2022-12-08T00:39:35.305Z,1.50
2022-12-08T00:40:39.202Z,1.00
2022-12-08T00:41:43.428Z,3.50
2022-12-08T00:42:47.417Z,4.50
2022-12-08T00:43:51.416Z,2.50
2022-12-08T00:44:55.627Z,3.75
2022-12-08T00:45:59.495Z,3.50
2022-12-08T00:47:03.211Z,2.50
2022-12-08T00:48:06.904Z,1.75
2022-12-08T00:49:10.701Z,2.00
2022-12-08T00:50:14.702Z,2.00
2022-12-08T00:51:20.148Z,2.75
2022-12-08T00:52:23.796Z,3.50
2022-12-08T00:53:27.537Z,2.00
2022-12-08T00:54:31.321Z,2.75
2022-12-08T00:55:35.229Z,3.25
2022-12-08T00:56:39.224Z,2.00
2022-12-08T00:57:42.983Z,2.00
2022-12-08T00:58:46.612Z,2.00
2022-12-08T00:59:50.426Z,1.50
2022-12-08T01:00:54.232Z,1.50
2022-12-08T01:01:58.219Z,2.50
2022-12-08T01:03:02.133Z,2.75
2022-12-08T01:04:06.201Z,2.00
2022-12-08T01:05:10.107Z,2.00
2022-12-08T01:06:14.027Z,3.00
2022-12-08T01:07:18.008Z,2.00
2022-12-08T01:08:21.819Z,2.25
2022-12-08T01:09:25.699Z,2.50
2022-12-08T01:10:29.704Z,1.00
2022-12-08T01:11:34.009Z,2.50
2022-12-08T01:12:37.992Z,3.00
2022-12-08T01:13:41.904Z,3.50
2022-12-08T01:14:46.012Z,2.50
2022-12-08T01:15:50.527Z,1.00
2022-12-08T01:16:54.907Z,2.00
2022-12-08T01:17:58.936Z,2.00
2022-12-08T01:19:03.033Z,2.50
2022-12-08T01:20:07.309Z,4.00
2022-12-08T01:21:11.507Z,2.00
2022-12-08T01:22:15.347Z,2.25
2022-12-08T01:23:19.248Z,2.00
2022-12-08T01:24:23.147Z,3.00
2022-12-08T01:25:29.808Z,2.25
2022-12-08T01:26:33.605Z,2.00
2022-12-08T01:27:37.375Z,3.00
2022-12-08T01:28:41.204Z,1.25
2022-12-08T01:29:44.993Z,1.00
2022-12-08T01:30:48.870Z,2.00
2022-12-08T01:31:52.793Z,1.25
2022-12-08T01:32:56.689Z,2.00
2022-12-08T01:34:00.493Z,3.00
2022-12-08T01:35:04.390Z,2.50
2022-12-08T01:36:08.179Z,2.50
2022-12-08T01:37:11.879Z,3.00
2022-12-08T01:38:15.771Z,3.25
2022-12-08T01:39:19.570Z,3.00
2022-12-08T01:40:23.364Z,2.25
2022-12-08T01:41:27.476Z,2.50
2022-12-08T01:42:31.471Z,2.50
2022-12-08T01:43:35.266Z,1.75
2022-12-08T01:44:39.480Z,1.75
2022-12-08T01:45:43.282Z,1.50
2022-12-08T01:46:47.072Z,3.00
2022-12-08T01:47:50.812Z,3.50
2022-12-08T01:48:54.531Z,3.50
2022-12-08T01:49:58.247Z,3.00
2022-12-08T01:51:01.999Z,1.25
2022-12-08T01:52:05.637Z,3.50
2022-12-08T01:53:09.460Z,4.00
2022-12-08T01:54:13.332Z,3.50
2022-12-08T01:55:17.124Z,4.00
2022-12-08T01:56:21.049Z,3.00
2022-12-08T01:57:24.823Z,2.25
2022-12-08T01:58:28.730Z,3.50
2022-12-08T01:59:32.523Z,2.50
2022-12-08T02:00:36.527Z,2.00
2022-12-08T02:01:40.514Z,2.75
2022-12-08T02:02:44.577Z,3.00
2022-12-08T02:03:48.523Z,2.25
2022-12-08T02:04:52.420Z,2.00
2022-12-08T02:05:56.529Z,2.50
2022-12-08T02:07:04.917Z,3.00
2022-12-08T02:08:06.214Z,3.00
2022-12-08T02:09:10.269Z,2.50
2022-12-08T02:10:14.785Z,3.50
2022-12-08T02:11:18.483Z,4.50
2022-12-08T02:12:22.372Z,2.00
2022-12-08T02:13:26.068Z,2.00
2022-12-08T02:14:30.128Z,1.50
2022-12-08T02:15:33.877Z,1.00
2022-12-08T02:16:37.664Z,2.50
2022-12-08T02:17:41.500Z,2.50
2022-12-08T02:18:50.452Z,1.00
2022-12-08T02:19:50.179Z,1.50
2022-12-08T02:20:53.979Z,1.50
2022-12-08T02:21:57.792Z,2.00
2022-12-08T02:23:01.675Z,2.50
2022-12-08T02:24:05.468Z,3.00
2022-12-08T02:25:09.467Z,2.50
2022-12-08T02:26:13.466Z,2.00
2022-12-08T02:27:17.263Z,3.00
2022-12-08T02:28:20.952Z,2.50
2022-12-08T02:29:24.962Z,1.50
2022-12-08T02:30:28.715Z,1.50
2022-12-08T02:31:32.468Z,2.25
2022-12-08T02:32:36.258Z,2.00
2022-12-08T02:33:40.045Z,1.00
2022-12-08T02:34:43.806Z,2.00
2022-12-08T02:35:47.631Z,2.00
2022-12-08T02:36:51.550Z,1.50
2022-12-08T02:37:55.243Z,1.50
2022-12-08T02:38:59.121Z,2.75
2022-12-08T02:40:03.655Z,4.00
2022-12-08T02:41:07.944Z,3.50
2022-12-08T02:42:11.739Z,2.50
2022-12-08T02:43:15.422Z,1.50
2022-12-08T02:44:19.085Z,2.00
2022-12-08T02:45:22.924Z,2.50
2022-12-08T02:46:26.835Z,3.00
2022-12-08T02:47:30.734Z,2.25
2022-12-08T02:48:34.825Z,2.50
2022-12-08T02:49:38.826Z,3.50
2022-12-08T02:50:42.941Z,2.50
2022-12-08T02:51:46.827Z,2.50
2022-12-08T02:52:50.686Z,2.50
2022-12-08T02:53:54.833Z,2.75
2022-12-08T02:54:59.031Z,2.50
2022-12-08T02:56:03.242Z,2.00
2022-12-08T02:57:07.461Z,2.00
2022-12-08T02:58:11.662Z,1.00
2022-12-08T02:59:15.660Z,3.00
2022-12-08T03:00:19.573Z,3.75
2022-12-08T03:01:23.375Z,4.00
2022-12-08T03:02:27.293Z,1.50
2022-12-08T03:03:31.567Z,1.25
2022-12-08T03:04:35.563Z,1.50
2022-12-08T03:05:39.458Z,2.00
2022-12-08T03:06:43.464Z,2.50
2022-12-08T03:07:47.323Z,2.00
2022-12-08T03:08:51.326Z,1.25
2022-12-08T03:09:55.169Z,2.50
2022-12-08T03:10:59.271Z,1.50
2022-12-08T03:12:03.162Z,1.50
2022-12-08T03:13:07.051Z,2.00
2022-12-08T03:14:11.060Z,1.50
2022-12-08T03:15:15.063Z,1.00
2022-12-08T03:16:19.089Z,1.50
2022-12-08T03:17:23.063Z,2.75
2022-12-08T03:18:26.752Z,3.00
2022-12-08T03:19:30.971Z,1.50
2022-12-08T03:20:34.961Z,1.50
2022-12-08T03:21:38.983Z,1.50
2022-12-08T03:22:43.073Z,2.25
2022-12-08T03:23:47.065Z,2.50
2022-12-08T03:24:51.092Z,2.25
2022-12-08T03:25:55.078Z,2.00
2022-12-08T03:26:59.172Z,2.00
2022-12-08T03:28:03.384Z,2.25
2022-12-08T03:29:07.377Z,2.00
2022-12-08T03:30:11.585Z,1.00
2022-12-08T03:31:15.632Z,1.75
2022-12-08T03:32:19.689Z,1.75
2022-12-08T03:33:23.588Z,0.50
2022-12-08T03:34:27.390Z,3.50
2022-12-08T03:35:31.383Z,3.20
2022-12-08T03:36:35.406Z,1.50
2022-12-08T03:37:39.183Z,2.25
2022-12-08T03:38:43.205Z,3.50
2022-12-08T03:39:47.500Z,2.00
2022-12-08T03:40:51.593Z,1.75
2022-12-08T03:41:55.701Z,2.00
2022-12-08T03:42:59.601Z,0.25
2022-12-08T03:44:03.252Z,1.50
2022-12-08T03:45:07.247Z,1.50
2022-12-08T03:46:11.430Z,1.00
2022-12-08T03:47:15.497Z,1.00
2022-12-08T03:48:19.294Z,1.00
2022-12-08T03:49:23.092Z,1.00
2022-12-08T03:50:26.989Z,1.25
2022-12-08T03:51:31.098Z,2.50
2022-12-08T03:52:35.194Z,3.00
2022-12-08T03:53:39.302Z,2.00
2022-12-08T03:54:43.406Z,0.50
2022-12-08T03:55:47.409Z,1.25
2022-12-08T03:56:51.104Z,1.25
2022-12-08T03:57:54.965Z,1.50
2022-12-08T03:58:58.894Z,2.50
2022-12-08T04:00:02.907Z,3.00
2022-12-08T04:01:07.002Z,3.00
2022-12-08T04:02:10.768Z,1.75
2022-12-08T04:03:14.657Z,1.00
2022-12-08T04:04:18.609Z,0.75
2022-12-08T04:05:22.389Z,0.75
2022-12-08T04:06:26.179Z,0.75
2022-12-08T04:07:30.087Z,1.00
2022-12-08T04:08:33.985Z,1.50
2022-12-08T04:09:37.778Z,2.00
2022-12-08T04:10:41.474Z,1.25
2022-12-08T04:11:45.265Z,0.50
2022-12-08T04:12:48.967Z,0.00
2022-12-08T04:13:52.858Z,0.00
2022-12-08T04:14:56.663Z,0.50
2022-12-08T04:16:00.697Z,2.00
2022-12-08T04:17:04.561Z,2.50
2022-12-08T04:18:08.567Z,1.00
2022-12-08T04:19:12.354Z,0.75
2022-12-08T04:20:16.351Z,1.00
2022-12-08T04:21:20.461Z,0.50
2022-12-08T04:22:24.206Z,1.00
2022-12-08T04:23:28.007Z,0.75
2022-12-08T04:24:31.745Z,2.00
2022-12-08T04:25:35.648Z,2.00
2022-12-08T04:26:39.542Z,1.00
2022-12-08T04:27:46.727Z,1.00
2022-12-08T04:28:50.729Z,1.00
2022-12-08T04:29:54.828Z,0.50
2022-12-08T04:30:58.776Z,0.50
2022-12-08T04:32:02.931Z,0.50
2022-12-08T04:33:07.148Z,0.00
2022-12-08T04:34:11.347Z,0.00
2022-12-08T04:35:15.345Z,0.25
2022-12-08T04:36:19.346Z,0.25
2022-12-08T04:37:23.343Z,0.00
2022-12-08T04:38:27.166Z,0.00
2022-12-08T04:39:31.149Z,0.50
2022-12-08T04:40:35.145Z,1.00
2022-12-08T04:41:38.931Z,1.25
2022-12-08T04:42:42.943Z,1.25
2022-12-08T04:43:46.632Z,1.00
2022-12-08T04:44:50.698Z,0.75
2022-12-08T04:45:55.614Z,1.25
2022-12-08T04:46:59.640Z,1.00
2022-12-08T04:48:03.732Z,0.50
2022-12-08T04:49:07.679Z,1.50
2022-12-08T04:50:11.767Z,1.75
2022-12-08T04:51:15.621Z,1.00
2022-12-08T04:52:19.151Z,1.00
2022-12-08T04:53:23.661Z,0.50
2022-12-08T04:54:28.307Z,0.00
2022-12-08T04:55:32.403Z,0.50
2022-12-08T04:56:36.258Z,0.00
2022-12-08T04:57:40.285Z,1.00
2022-12-08T04:58:44.165Z,2.00
2022-12-08T04:59:48.087Z,0.50
2022-12-08T05:00:52.282Z,0.50
2022-12-08T05:01:56.289Z,1.00
2022-12-08T05:03:00.377Z,1.75
2022-12-08T05:04:04.255Z,2.00
2022-12-08T05:05:08.085Z,1.00
2022-12-08T05:06:11.984Z,1.00
2022-12-08T05:07:15.739Z,1.00
2022-12-08T05:08:19.577Z,0.75
2022-12-08T05:09:23.585Z,0.00
2022-12-08T05:10:27.439Z,0.00
2022-12-08T05:11:31.290Z,0.00
2022-12-08T05:12:35.373Z,0.00
2022-12-08T05:13:39.272Z,0.25
2022-12-08T05:14:43.401Z,0.75
2022-12-08T05:15:47.494Z,0.50
2022-12-08T05:16:51.430Z,0.75
2022-12-08T05:17:55.694Z,1.00
2022-12-08T05:18:59.804Z,1.00
2022-12-08T05:20:04.125Z,1.25
2022-12-08T05:21:08.305Z,0.50
2022-12-08T05:22:12.423Z,1.00
2022-12-08T05:23:16.516Z,1.00
2022-12-08T05:24:20.514Z,0.00
2022-12-08T05:25:24.360Z,0.50
2022-12-08T05:26:28.103Z,1.00
2022-12-08T05:27:32.112Z,2.00
2022-12-08T05:28:43.961Z,1.00
2022-12-08T05:29:41.518Z,0.75
2022-12-08T05:30:45.569Z,0.50
2022-12-08T05:31:49.534Z,0.00
2022-12-08T05:32:53.555Z,1.00
2022-12-08T05:34:02.436Z,0.00
2022-12-08T05:35:02.388Z,1.00
2022-12-08T05:36:06.281Z,1.00
2022-12-08T05:37:10.068Z,0.50
2022-12-08T05:38:13.961Z,0.75
2022-12-08T05:39:18.314Z,1.50
2022-12-08T05:40:22.037Z,2.50
2022-12-08T05:41:26.076Z,1.00
2022-12-08T05:42:29.762Z,1.00
2022-12-08T05:43:33.532Z,1.00
2022-12-08T05:44:37.251Z,0.75
2022-12-08T05:45:41.198Z,0.00
2022-12-08T05:46:44.954Z,1.25
2022-12-08T05:47:48.976Z,1.00
2022-12-08T05:48:52.744Z,1.00
2022-12-08T05:49:56.444Z,2.00
2022-12-08T05:51:00.347Z,1.00
2022-12-08T05:52:04.131Z,0.50
2022-12-08T05:53:07.931Z,0.50
2022-12-08T05:54:11.739Z,0.25
2022-12-08T05:55:15.581Z,0.00
2022-12-08T05:56:19.328Z,0.00
2022-12-08T05:57:23.125Z,0.50
2022-12-08T05:58:26.911Z,0.00
2022-12-08T05:59:30.608Z,0.00
2022-12-08T06:00:34.525Z,0.00
2022-12-08T06:01:38.548Z,2.00
2022-12-08T06:02:42.337Z,2.50
2022-12-08T06:03:46.251Z,2.25
2022-12-08T06:04:50.116Z,0.50
2022-12-08T06:05:53.803Z,0.25
2022-12-08T06:06:57.693Z,0.00
2022-12-08T06:08:01.558Z,0.50
2022-12-08T06:09:05.287Z,0.75
2022-12-08T06:10:09.199Z,1.00
2022-12-08T06:11:12.968Z,1.25
2022-12-08T06:12:17.059Z,1.50
2022-12-08T06:13:21.102Z,0.00
2022-12-08T06:14:25.002Z,0.50
2022-12-08T06:15:28.785Z,1.50
2022-12-08T06:16:32.732Z,0.50
2022-12-08T06:17:36.790Z,0.75
2022-12-08T06:18:40.586Z,0.25
2022-12-08T06:19:44.666Z,0.00
2022-12-08T06:20:48.476Z,0.50
2022-12-08T06:21:52.353Z,0.75
2022-12-08T06:22:56.493Z,1.00
2022-12-08T06:24:00.486Z,1.50
2022-12-08T06:25:08.470Z,1.00
2022-12-08T06:26:09.814Z,2.50
2022-12-08T06:27:14.134Z,1.50
2022-12-08T06:28:18.109Z,1.00
2022-12-08T06:29:21.924Z,0.50
2022-12-08T06:30:25.515Z,1.25
2022-12-08T06:31:29.374Z,2.50
2022-12-08T06:32:33.096Z,1.50
2022-12-08T06:33:36.797Z,0.50
2022-12-08T06:34:40.444Z,1.00
2022-12-08T06:35:44.802Z,1.00
2022-12-08T06:36:48.904Z,2.00
2022-12-08T06:37:52.927Z,1.00
2022-12-08T06:38:56.918Z,1.00
2022-12-08T06:40:01.257Z,1.50
2022-12-08T06:41:05.119Z,1.00
2022-12-08T06:42:09.234Z,1.00
2022-12-08T06:43:13.632Z,1.50
2022-12-08T06:44:17.836Z,3.00
2022-12-08T06:45:21.650Z,2.75
2022-12-08T06:46:25.517Z,1.75
2022-12-08T06:47:29.644Z,2.50
2022-12-08T06:48:33.645Z,2.50
2022-12-08T06:49:37.464Z,2.50
2022-12-08T06:50:41.541Z,1.00
2022-12-08T06:51:45.571Z,1.50
2022-12-08T06:52:59.534Z,1.00
2022-12-08T06:53:54.566Z,0.50
2022-12-08T06:54:58.683Z,1.00
2022-12-08T06:56:02.892Z,1.00
2022-12-08T06:57:06.982Z,0.50
2022-12-08T06:58:11.093Z,0.00
2022-12-08T06:59:14.892Z,1.00
2022-12-08T07:00:18.540Z,1.00
2022-12-08T07:01:24.088Z,1.50
2022-12-08T07:02:28.160Z,1.00
2022-12-08T07:03:32.001Z,1.50
2022-12-08T07:04:36.100Z,1.00
2022-12-08T07:05:40.417Z,3.75
2022-12-08T07:06:44.934Z,1.75
2022-12-08T07:07:48.713Z,2.00
2022-12-08T07:08:52.894Z,2.50
2022-12-08T07:09:56.871Z,2.50
2022-12-08T07:11:00.932Z,2.00
2022-12-08T07:12:04.899Z,1.75
2022-12-08T07:13:08.745Z,1.00
2022-12-08T07:14:12.641Z,0.00
2022-12-08T07:15:16.428Z,0.50
2022-12-08T07:16:20.485Z,1.50
2022-12-08T07:17:24.135Z,1.00
2022-12-08T07:18:28.125Z,1.00
2022-12-08T07:19:32.028Z,1.50
2022-12-08T07:20:36.135Z,2.50
2022-12-08T07:21:40.127Z,2.25
2022-12-08T07:22:43.922Z,2.00
2022-12-08T07:23:50.188Z,2.50
2022-12-08T07:24:52.842Z,2.00
2022-12-08T07:25:56.849Z,1.00
2022-12-08T07:27:01.086Z,0.50
2022-12-08T07:28:05.055Z,0.50
2022-12-08T07:29:09.055Z,0.50
2022-12-08T07:30:13.150Z,1.00
2022-12-08T07:31:17.249Z,1.50
2022-12-08T07:32:21.054Z,2.50
2022-12-08T07:33:24.754Z,2.25
2022-12-08T07:34:28.661Z,1.50
2022-12-08T07:35:34.736Z,1.00
2022-12-08T07:36:37.580Z,1.50
2022-12-08T07:37:41.429Z,0.75
2022-12-08T07:38:45.167Z,1.00
2022-12-08T07:39:48.871Z,1.00
2022-12-08T07:40:52.572Z,2.00
2022-12-08T07:41:56.369Z,2.25
2022-12-08T07:43:00.047Z,3.00
2022-12-08T07:44:03.840Z,2.50
2022-12-08T07:45:07.634Z,2.50
2022-12-08T07:46:11.558Z,1.00
2022-12-08T07:47:15.534Z,2.25
2022-12-08T07:48:19.231Z,3.00
2022-12-08T07:49:23.140Z,3.00
2022-12-08T07:50:27.084Z,3.00
2022-12-08T07:51:31.566Z,3.00
2022-12-08T07:52:37.402Z,1.75
2022-12-08T07:53:42.725Z,2.00
2022-12-08T07:54:47.273Z,2.00
2022-12-08T07:55:51.217Z,1.50
2022-12-08T07:56:55.389Z,0.50
2022-12-08T07:57:59.633Z,0.50
2022-12-08T07:59:03.939Z,0.75
2022-12-08T08:00:08.392Z,2.75
2022-12-08T08:01:12.720Z,3.25
2022-12-08T08:02:25.554Z,1.00
2022-12-08T08:03:21.991Z,2.50
2022-12-08T08:04:26.233Z,3.00
2022-12-08T08:05:30.304Z,2.75
2022-12-08T08:06:34.399Z,4.00
2022-12-08T08:07:38.954Z,3.00
2022-12-08T08:08:43.331Z,2.00
2022-12-08T08:09:47.543Z,1.75
2022-12-08T08:10:51.959Z,1.50
2022-12-08T08:12:22.204Z,3.00
2022-12-08T08:13:01.752Z,2.00
2022-12-08T08:14:05.900Z,1.00
2022-12-08T08:15:09.972Z,1.00
2022-12-08T08:16:14.397Z,1.50
2022-12-08T08:17:18.743Z,4.25
2022-12-08T08:18:23.029Z,5.00
2022-12-08T08:19:26.908Z,6.50
2022-12-08T08:20:31.226Z,10.00
2022-12-08T08:21:50.729Z,6.25
2022-12-08T08:22:41.417Z,1.25
2022-12-08T08:23:45.488Z,2.00
2022-12-08T08:24:49.594Z,3.25
2022-12-08T08:25:53.802Z,3.25
2022-12-08T08:26:57.801Z,4.50
2022-12-08T08:28:02.211Z,3.50
2022-12-08T08:29:06.691Z,1.75
2022-12-08T08:30:14.004Z,0.50
2022-12-08T08:31:16.365Z,2.00
2022-12-08T08:32:20.628Z,3.00
2022-12-08T08:33:24.694Z,3.50
2022-12-08T08:34:28.994Z,3.25
2022-12-08T08:35:33.055Z,1.75
2022-12-08T08:36:37.186Z,1.00
2022-12-08T08:37:45.579Z,1.75
2022-12-08T08:38:46.648Z,2.75
2022-12-08T08:39:51.647Z,2.50
2022-12-08T08:40:55.964Z,2.00
2022-12-08T08:42:00.046Z,2.50
2022-12-08T08:43:04.270Z,2.00
2022-12-08T08:44:09.296Z,3.00
2022-12-08T08:45:13.800Z,6.50
2022-12-08T08:46:17.793Z,5.50
2022-12-08T08:47:22.012Z,4.00
2022-12-08T08:48:26.322Z,2.50
2022-12-08T08:49:30.630Z,1.50
2022-12-08T08:50:37.699Z,1.75
2022-12-08T08:51:40.889Z,2.50
2022-12-08T08:52:45.184Z,1.00
2022-12-08T08:53:49.496Z,2.50
2022-12-08T08:54:53.909Z,2.00
2022-12-08T08:55:58.521Z,2.50
2022-12-08T08:57:02.829Z,2.00
2022-12-08T08:58:06.811Z,2.25
2022-12-08T08:59:11.151Z,3.00
2022-12-08T09:00:15.565Z,2.50
2022-12-08T09:01:20.506Z,3.00
2022-12-08T09:02:25.099Z,6.25
2022-12-08T09:03:29.708Z,8.00
2022-12-08T09:04:33.951Z,7.50
2022-12-08T09:05:39.229Z,4.00
2022-12-08T09:06:43.064Z,5.00
2022-12-08T09:07:46.896Z,5.00
2022-12-08T09:08:50.796Z,3.50
2022-12-08T09:09:58.444Z,4.50
2022-12-08T09:11:00.168Z,4.50
2022-12-08T09:12:04.893Z,2.50
2022-12-08T09:13:09.097Z,3.50
2022-12-08T09:14:13.213Z,3.00
2022-12-08T09:15:17.711Z,3.00
2022-12-08T09:16:22.104Z,4.00
2022-12-08T09:17:26.289Z,2.00
2022-12-08T09:18:30.331Z,2.50
2022-12-08T09:19:34.324Z,3.25
2022-12-08T09:20:38.841Z,1.75
2022-12-08T09:21:43.137Z,3.00
2022-12-08T09:22:47.869Z,3.50
2022-12-08T09:23:52.198Z,2.00
2022-12-08T09:24:56.380Z,1.50
2022-12-08T09:26:00.447Z,1.75
2022-12-08T09:27:04.607Z,2.00
2022-12-08T09:28:08.547Z,2.50
2022-12-08T09:29:12.592Z,4.00
2022-12-08T09:30:16.861Z,2.25
2022-12-08T09:31:20.742Z,2.00
2022-12-08T09:32:25.011Z,1.75
2022-12-08T09:33:29.173Z,1.50
2022-12-08T09:34:33.310Z,1.00
2022-12-08T09:35:37.412Z,1.00
2022-12-08T09:36:41.729Z,1.75
2022-12-08T09:37:45.746Z,3.00
2022-12-08T09:38:50.035Z,2.00
2022-12-08T09:39:54.370Z,1.50
2022-12-08T09:40:58.652Z,3.00
2022-12-08T09:42:02.673Z,2.50
2022-12-08T09:43:06.857Z,2.50
2022-12-08T09:44:11.469Z,2.00
2022-12-08T09:45:15.719Z,3.00
2022-12-08T09:46:19.750Z,3.25
2022-12-08T09:47:24.088Z,2.75
2022-12-08T09:48:28.003Z,2.00
2022-12-08T09:49:32.110Z,2.00
2022-12-08T09:50:36.373Z,1.50
2022-12-08T09:51:40.370Z,2.00
2022-12-08T09:52:44.131Z,2.00
2022-12-08T09:53:47.925Z,2.00
2022-12-08T09:54:52.222Z,2.00
2022-12-08T09:55:56.222Z,1.25
2022-12-08T09:57:00.023Z,1.25
2022-12-08T09:58:03.823Z,1.50
2022-12-08T09:59:07.920Z,1.25
2022-12-08T10:00:11.819Z,2.75
2022-12-08T10:01:15.621Z,2.50
2022-12-08T10:02:19.609Z,3.00
2022-12-08T10:03:23.798Z,3.00
2022-12-08T10:04:28.003Z,1.00
2022-12-08T10:05:32.704Z,3.00
2022-12-08T10:06:37.129Z,4.00
2022-12-08T10:07:41.264Z,2.50
2022-12-08T10:08:45.205Z,2.00
2022-12-08T10:09:49.749Z,2.00
2022-12-08T10:10:54.874Z,1.75
2022-12-08T10:11:59.185Z,2.50
2022-12-08T10:13:03.803Z,3.00
2022-12-08T10:14:07.910Z,2.75
2022-12-08T10:15:11.907Z,3.00
2022-12-08T10:16:23.098Z,2.50
2022-12-08T10:17:21.438Z,2.25
2022-12-08T10:18:25.853Z,1.50
2022-12-08T10:19:29.822Z,1.50
2022-12-08T10:20:34.062Z,2.00
2022-12-08T10:21:38.483Z,1.50
2022-12-08T10:22:44.862Z,1.00
2022-12-08T10:23:48.185Z,1.50
2022-12-08T10:24:52.556Z,1.50
2022-12-08T10:25:57.042Z,2.50
2022-12-08T10:27:01.551Z,2.50
2022-12-08T10:28:05.755Z,2.50
2022-12-08T10:29:09.862Z,1.75
2022-12-08T10:30:14.063Z,2.50
2022-12-08T10:31:18.419Z,2.50
2022-12-08T10:32:24.015Z,2.50
2022-12-08T10:33:28.072Z,3.00
2022-12-08T10:34:32.427Z,2.00
2022-12-08T10:35:36.876Z,1.25
2022-12-08T10:36:41.249Z,1.75
2022-12-08T10:37:45.755Z,1.75
2022-12-08T10:38:50.064Z,2.75
2022-12-08T10:39:54.057Z,0.80
2022-12-08T10:40:58.275Z,2.25
2022-12-08T10:42:02.716Z,3.00
2022-12-08T10:43:07.258Z,2.50
2022-12-08T10:44:11.492Z,1.50
2022-12-08T10:45:16.125Z,2.50
2022-12-08T10:46:20.711Z,1.50
2022-12-08T10:47:24.840Z,3.00
2022-12-08T10:48:29.111Z,3.00
2022-12-08T10:49:33.386Z,2.25
2022-12-08T10:50:37.558Z,3.00
2022-12-08T10:51:41.561Z,3.00
2022-12-08T10:52:45.565Z,3.00
2022-12-08T10:53:50.084Z,3.00
2022-12-08T10:54:54.179Z,2.50
2022-12-08T10:55:58.203Z,1.00
2022-12-08T10:57:02.489Z,1.00
2022-12-08T10:58:06.506Z,1.50
2022-12-08T10:59:10.703Z,2.50
2022-12-08T11:00:15.078Z,1.50
2022-12-08T11:01:19.228Z,1.00
2022-12-08T11:02:23.204Z,1.50
2022-12-08T11:03:27.301Z,1.50
2022-12-08T11:04:31.619Z,1.75
2022-12-08T11:05:35.621Z,2.25
2022-12-08T11:06:39.721Z,1.50
2022-12-08T11:07:43.862Z,2.00
2022-12-08T11:08:48.054Z,1.50
2022-12-08T11:09:52.759Z,2.00
2022-12-08T11:10:56.748Z,1.75
2022-12-08T11:12:00.710Z,1.50
2022-12-08T11:13:04.650Z,1.50
2022-12-08T11:14:08.661Z,1.50
2022-12-08T11:15:12.951Z,1.75
2022-12-08T11:16:17.256Z,2.00
2022-12-08T11:17:21.272Z,2.25
2022-12-08T11:18:25.478Z,2.00
2022-12-08T11:19:29.681Z,1.25
2022-12-08T11:20:34.302Z,2.00
2022-12-08T11:21:38.230Z,2.00
2022-12-08T11:22:42.113Z,1.50
2022-12-08T11:23:46.300Z,1.50
2022-12-08T11:24:50.404Z,2.00
2022-12-08T11:25:54.394Z,2.50
2022-12-08T11:26:58.815Z,3.00
2022-12-08T11:28:03.023Z,1.75
2022-12-08T11:29:07.225Z,1.50
2022-12-08T11:30:14.298Z,2.00
2022-12-08T11:31:16.911Z,2.25
2022-12-08T11:32:21.086Z,1.50
2022-12-08T11:33:25.192Z,2.00
2022-12-08T11:34:29.488Z,1.50
2022-12-08T11:35:33.487Z,1.75
2022-12-08T11:36:38.062Z,3.00
2022-12-08T11:37:42.411Z,2.00
2022-12-08T11:38:46.523Z,0.50
2022-12-08T11:39:50.722Z,1.25
2022-12-08T11:40:55.135Z,3.00
2022-12-08T11:41:59.540Z,2.00
2022-12-08T11:43:03.649Z,2.00
2022-12-08T11:44:07.953Z,1.25
2022-12-08T11:45:12.016Z,1.50
2022-12-08T11:46:16.529Z,1.00
2022-12-08T11:47:21.022Z,2.25
2022-12-08T11:48:24.989Z,2.75
2022-12-08T11:49:28.981Z,2.50
2022-12-08T11:50:33.088Z,2.50
2022-12-08T11:51:37.292Z,2.75
2022-12-08T11:52:41.905Z,2.75
2022-12-08T11:53:46.224Z,2.50
2022-12-08T11:54:50.413Z,2.50
2022-12-08T11:55:54.627Z,2.50
2022-12-08T11:56:58.732Z,3.00
2022-12-08T11:58:03.414Z,1.50
2022-12-08T11:59:07.652Z,2.50
2022-12-08T12:00:11.861Z,2.50
2022-12-08T12:01:15.971Z,3.00
2022-12-08T12:02:20.158Z,1.75
2022-12-08T12:03:24.530Z,1.50
2022-12-08T12:04:28.500Z,1.50
2022-12-08T12:06:53.730Z,1.75
2022-12-08T12:07:42.685Z,1.50
2022-12-08T12:08:47.249Z,2.00
2022-12-08T12:09:51.457Z,2.00
2022-12-08T12:10:55.761Z,2.50
2022-12-08T12:11:59.770Z,2.00
2022-12-08T12:13:04.072Z,1.00
2022-12-08T12:14:08.255Z,2.00
2022-12-08T12:15:12.690Z,3.00
2022-12-08T12:16:16.724Z,2.25
2022-12-08T12:17:20.691Z,2.00
2022-12-08T12:18:24.844Z,1.25
2022-12-08T12:19:29.000Z,0.50
2022-12-08T12:20:33.027Z,0.00
2022-12-08T12:21:37.101Z,1.25
2022-12-08T12:22:41.429Z,1.00
2022-12-08T12:23:45.631Z,2.50
2022-12-08T12:24:50.241Z,2.50
2022-12-08T12:25:54.650Z,3.00
2022-12-08T12:26:58.852Z,2.00
2022-12-08T12:28:03.361Z,2.50
2022-12-08T12:29:07.670Z,3.00
2022-12-08T12:30:12.288Z,3.50
2022-12-08T12:31:16.520Z,2.50
2022-12-08T12:32:20.697Z,1.50
2022-12-08T12:33:24.660Z,2.50
2022-12-08T12:34:28.699Z,1.25
2022-12-08T12:35:32.665Z,2.75
2022-12-08T12:36:37.021Z,2.25
2022-12-08T12:37:41.110Z,2.00
2022-12-08T12:38:45.219Z,1.50
2022-12-08T12:39:49.418Z,1.00
2022-12-08T12:40:53.409Z,2.75
2022-12-08T12:41:57.529Z,3.00
2022-12-08T12:43:01.633Z,3.00
2022-12-08T12:44:05.731Z,2.00
2022-12-08T12:45:09.697Z,2.75
2022-12-08T12:46:13.967Z,2.00
2022-12-08T12:47:18.144Z,3.00
2022-12-08T12:48:22.350Z,1.25
2022-12-08T12:49:26.771Z,1.00
2022-12-08T12:50:30.866Z,1.75
2022-12-08T12:51:34.882Z,1.50
2022-12-08T12:52:38.735Z,1.00
2022-12-08T12:53:42.767Z,1.50
2022-12-08T12:54:46.869Z,2.50
2022-12-08T12:55:50.970Z,1.50
2022-12-08T12:56:55.353Z,2.25
2022-12-08T12:57:59.279Z,2.50
2022-12-08T12:59:03.282Z,1.50
2022-12-08T13:00:07.741Z,0.50
2022-12-08T13:01:12.052Z,0.75
2022-12-08T13:02:16.458Z,2.00
2022-12-08T13:03:20.527Z,1.75
2022-12-08T13:04:24.628Z,2.25
2022-12-08T13:05:28.499Z,2.75
2022-12-08T13:06:32.530Z,2.50
2022-12-08T13:07:36.950Z,2.00
2022-12-08T13:08:40.930Z,2.00
2022-12-08T13:09:45.136Z,2.50
2022-12-08T13:10:49.246Z,2.00
2022-12-08T13:11:53.344Z,2.50
2022-12-08T13:12:59.699Z,3.50
2022-12-08T13:14:03.857Z,4.00
2022-12-08T13:15:08.109Z,3.50
2022-12-08T13:16:18.803Z,1.00
2022-12-08T13:17:18.087Z,2.25
2022-12-08T13:18:22.471Z,1.50
2022-12-08T13:19:26.506Z,1.00
2022-12-08T13:20:30.483Z,1.75
2022-12-08T13:21:34.787Z,2.00
2022-12-08T13:22:38.781Z,2.50
2022-12-08T13:23:43.296Z,2.00
2022-12-08T13:24:47.595Z,2.50
2022-12-08T13:25:51.709Z,1.50
2022-12-08T13:26:56.219Z,2.00
2022-12-08T13:28:00.408Z,2.00
2022-12-08T13:29:04.833Z,2.00
2022-12-08T13:30:09.322Z,2.75
2022-12-08T13:31:13.539Z,2.00
2022-12-08T13:32:17.966Z,3.00
2022-12-08T13:33:22.071Z,2.00
2022-12-08T13:34:26.480Z,2.50
2022-12-08T13:35:30.579Z,2.50
2022-12-08T13:36:34.587Z,3.00
2022-12-08T13:37:48.126Z,3.50
2022-12-08T13:38:45.552Z,3.00
2022-12-08T13:39:50.376Z,2.50
2022-12-08T13:40:54.480Z,2.50
2022-12-08T13:41:58.652Z,2.50
2022-12-08T13:43:02.789Z,1.25
2022-12-08T13:45:33.514Z,3.50
2022-12-08T13:47:33.816Z,1.75
2022-12-08T13:49:03.386Z,2.50
2022-12-08T13:51:23.536Z,3.75
2022-12-08T13:54:52.735Z,2.50
2022-12-08T13:57:11.966Z,1.50
2022-12-08T13:58:14.937Z,3.25
2022-12-08T13:59:19.010Z,3.00
2022-12-08T14:00:23.049Z,3.25
2022-12-08T14:01:27.657Z,4.25
2022-12-08T14:02:31.642Z,3.00
2022-12-08T14:03:35.807Z,3.00
2022-12-08T14:05:16.192Z,2.75
2022-12-08T14:06:50.168Z,2.50
2022-12-08T14:07:54.346Z,1.75
2022-12-08T14:09:01.464Z,2.00
2022-12-08T14:10:03.404Z,3.00
2022-12-08T14:11:07.394Z,1.00
2022-12-08T14:12:11.300Z,1.50
2022-12-08T14:13:15.409Z,1.50
2022-12-08T14:14:32.819Z,0.75
2022-12-08T14:15:24.746Z,1.00
2022-12-08T14:16:28.878Z,1.50
2022-12-08T14:17:33.049Z,2.00
2022-12-08T14:18:37.145Z,1.00
2022-12-08T14:19:40.612Z,1.00
2022-12-08T14:21:18.847Z,2.25
2022-12-08T14:21:49.966Z,2.50
2022-12-08T14:22:53.990Z,3.00